KBVU

Boulder City Municipal Airport

Boulder City, Nevada, USA
METAR KBVU 180215Z AUTO 15014KT 10SM CLR 36/15 A2995 RMK AO2
Observed Flight Rules
Aug-18 @ 02:15 UTC (14 minutes ago) Visual Flight Rules
Wind Visibility Clouds
150° at 14 knots 10 miles
  • Clear skies
Temperatures Readings
Current 36°C / 97°F
Dewpoint 15°C / 59°F
Humidity 28%
Altimeter 29.95" Hg
Pressure 1014 hPa
Elevation 671
METAR KBVU 180215Z AUTO 15014KT 10SM CLR 36/15 A2995 RMK AO2
Observed Flight Rules
Aug-18 @ 02:15 UTC
(14 minutes ago)
VFR
Wind Visibility
150° at 14 knots 10 miles
Clouds
  • Clear skies
Temperature Dewpoint
36°C / 97°F 15°C / 59°F
Humidity Altimeter Pressure
28% 29.95" Hg 1014 hPa